Nearby METAR Reports

 

KMLI - Moline/Quad City, Illinois, USA
Distance from station: ENE 4mi, 7km
Updated: 09/28/2021 1:52am
Clear
Clear
 Wind from ENE
Wind: ENE 14 mph , 22 km/h
Temperature: 63°F , 17°C
Dew Point: 54°F , 12°C
Humidity: 73%
Barometer: 29.91 inHg , 1012.9 hPa
Clouds: Clear
Visibility: 10 miles , 16 km
2021/09/28 06:52 KMLI 280652Z AUTO 06012KT 10SM CLR 17/12 A2991 RMK AO2 SLP124 T01720122
KDVN - Davenport/Quad C, Iowa, USA
Distance from station: N 14mi, 22km
Updated: 09/28/2021 1:52am
Clear
Clear
 Wind from ENE
Wind: ENE 12 mph , 19 km/h
Temperature: 61°F , 16°C
Dew Point: 54°F , 12°C
Humidity: 77%
Barometer: 29.93 inHg , 1013.5 hPa
Clouds: Clear
Visibility: 10 miles , 16 km
2021/09/28 06:52 KDVN 280652Z AUTO 07010KT 10SM CLR 16/12 A2993 RMK AO2 SLP128 T01610117
 
KMUT - Muscatine, Iowa, USA
Distance from station: W 29mi, 47km
Updated: 09/28/2021 2:15am
Clear
Clear
 Wind from ENE
Wind: ENE 8 mph , 13 km/h
Temperature: 66°F , 19°C
Dew Point: 59°F , 15°C
Humidity: 78%
Barometer: 29.90 inHg , 1012.5 hPa
Clouds: Clear
Visibility: 10 miles , 16 km
2021/09/28 07:15 KMUT 280715Z AUTO 07007KT 10SM CLR 19/15 A2990 RMK AO2
KCWI - Clinton Muni, Iowa, USA
Distance from station: NNE 31mi, 50km
Updated: 09/28/2021 1:56am
Clear
Clear
 Wind from ENE
Wind: ENE 7 mph , 11 km/h
Temperature: 57°F , 14°C
Dew Point: 54°F , 12°C
Humidity: 88%
Barometer: 29.94 inHg , 1013.9 hPa
Clouds: Clear
Visibility: 10 miles , 16 km
2021/09/28 06:56 KCWI 280656Z AUTO 07006KT 10SM CLR 14/12 A2994 RMK AO2 SLP137 T01440117
 
KGBG - Galesburg, Illinois, USA
Distance from station: SSE 35mi, 56km
Updated: 09/28/2021 2:15am
Clear
Clear
 Wind from ENE
Wind: ENE 7 mph , 11 km/h
Temperature: 59°F , 15°C
Dew Point: 55°F , 13°C
Humidity: 88%
Barometer: 29.91 inHg , 1012.9 hPa
Clouds: Clear
Visibility: 10 miles , 16 km
2021/09/28 07:15 KGBG 280715Z AUTO 06006KT 10SM CLR 15/13 A2991 RMK AO2 T01540126
KSFY - Savanna/Tritown, Illinois, USA
Distance from station: NNE 50mi, 80km
Updated: 09/28/2021 2:15am
Haze, Clear
Haze, Clear
 Wind from NE
Wind: NE 6 mph , 9 km/h
Temperature: 55°F , 13°C
Dew Point: 50°F , 10°C
Humidity: 82%
Barometer: 29.94 inHg , 1013.9 hPa
Summary: Haze
Clouds: Clear
Visibility: 5 miles , 8 km
2021/09/28 07:15 KSFY 280715Z AUTO 05005KT 5SM HZ CLR 13/10 A2994 RMK AO2